createdAt,value
2017-12-14T00:01:11.359Z,2.22
2017-12-14T00:03:38.006Z,2.42
2017-12-14T00:06:04.693Z,2.50
2017-12-14T00:08:31.226Z,2.35
2017-12-14T00:10:57.825Z,2.33
2017-12-14T00:13:24.406Z,2.40
2017-12-14T00:15:50.942Z,2.20
2017-12-14T00:18:17.519Z,2.10
2017-12-14T00:20:44.076Z,1.80
2017-12-14T00:23:10.610Z,2.60
2017-12-14T00:25:37.246Z,2.08
2017-12-14T00:28:03.820Z,2.10
2017-12-14T00:30:30.357Z,2.33
2017-12-14T00:32:57.022Z,1.98
2017-12-14T00:35:23.637Z,2.17
2017-12-14T00:37:50.345Z,2.50
2017-12-14T00:40:17.065Z,2.55
2017-12-14T00:42:43.685Z,2.17
2017-12-14T00:45:10.234Z,2.10
2017-12-14T00:47:37.014Z,2.25
2017-12-14T00:50:03.573Z,2.58
2017-12-14T00:52:30.103Z,2.58
2017-12-14T00:54:57.033Z,2.33
2017-12-14T00:57:23.611Z,2.40
2017-12-14T00:59:50.184Z,1.87
2017-12-14T01:02:16.885Z,2.40
2017-12-14T01:04:43.442Z,1.77
2017-12-14T01:07:10.078Z,2.50
2017-12-14T01:09:36.757Z,2.40
2017-12-14T01:12:03.337Z,2.40
2017-12-14T01:14:29.925Z,1.98
2017-12-14T01:16:56.600Z,2.10
2017-12-14T01:19:23.155Z,2.20
2017-12-14T01:21:49.770Z,1.70
2017-12-14T01:24:16.369Z,2.25
2017-12-14T01:26:43.373Z,1.90
2017-12-14T01:29:10.025Z,1.80
2017-12-14T01:31:36.703Z,2.08
2017-12-14T01:34:03.322Z,1.50
2017-12-14T01:36:29.857Z,1.70
2017-12-14T01:38:56.446Z,1.52
2017-12-14T01:41:23.070Z,1.20
2017-12-14T01:43:49.618Z,1.67
2017-12-14T01:46:16.263Z,1.00
2017-12-14T01:48:42.794Z,1.40
2017-12-14T01:51:09.313Z,0.95
2017-12-14T01:53:35.933Z,1.17
2017-12-14T01:56:02.554Z,1.10
2017-12-14T01:58:29.129Z,1.00
2017-12-14T02:00:55.734Z,0.90
2017-12-14T02:03:22.427Z,0.90
2017-12-14T02:05:48.963Z,1.00
2017-12-14T02:08:15.581Z,0.80
2017-12-14T02:10:42.113Z,0.70
2017-12-14T02:13:09.097Z,0.62
2017-12-14T02:15:35.705Z,0.80
2017-12-14T02:18:02.237Z,0.70
2017-12-14T02:20:28.794Z,0.77
2017-12-14T02:22:55.723Z,1.15
2017-12-14T02:25:22.270Z,0.70
2017-12-14T02:27:48.919Z,0.73
2017-12-14T02:30:15.518Z,0.68
2017-12-14T02:32:42.443Z,0.65
2017-12-14T02:35:08.970Z,0.80
2017-12-14T02:37:35.550Z,0.70
2017-12-14T02:40:02.090Z,0.60
2017-12-14T02:42:28.645Z,0.70
2017-12-14T02:44:55.613Z,0.70
2017-12-14T02:47:22.539Z,0.70
2017-12-14T02:49:49.071Z,0.90
2017-12-14T02:52:15.694Z,0.60
2017-12-14T02:54:42.258Z,0.65
2017-12-14T02:57:08.789Z,0.70
2017-12-14T02:59:35.385Z,0.90
2017-12-14T03:02:01.919Z,0.50
2017-12-14T03:04:28.501Z,0.60
2017-12-14T03:06:55.581Z,0.57
2017-12-14T03:09:22.238Z,0.60
2017-12-14T03:11:48.772Z,0.40
2017-12-14T03:14:15.464Z,0.50
2017-12-14T03:16:42.012Z,0.70
2017-12-14T03:19:08.552Z,0.50
2017-12-14T03:21:35.134Z,0.60
2017-12-14T03:24:01.755Z,0.50
2017-12-14T03:26:28.285Z,0.50
2017-12-14T03:28:54.962Z,0.50
2017-12-14T03:31:21.499Z,0.55
2017-12-14T03:33:48.025Z,0.82
2017-12-14T03:36:14.693Z,0.60
2017-12-14T03:38:41.234Z,0.40
2017-12-14T03:41:07.768Z,0.45
2017-12-14T03:43:34.373Z,0.50
2017-12-14T03:46:01.282Z,0.40
2017-12-14T03:48:27.916Z,0.40
2017-12-14T03:50:54.576Z,0.40
2017-12-14T03:53:21.240Z,0.40
2017-12-14T03:55:47.889Z,0.40
2017-12-14T03:58:14.538Z,0.40
2017-12-14T04:00:41.083Z,0.40
2017-12-14T04:03:07.639Z,0.40
2017-12-14T04:05:34.265Z,0.40
2017-12-14T04:08:00.881Z,0.40
2017-12-14T04:10:27.486Z,0.50
2017-12-14T04:12:54.201Z,0.50
2017-12-14T04:15:20.801Z,0.68
2017-12-14T04:17:47.385Z,0.32
2017-12-14T04:20:14.078Z,0.50
2017-12-14T04:22:40.661Z,0.40
2017-12-14T04:25:14.859Z,0.50
2017-12-14T04:27:41.463Z,0.40
2017-12-14T04:30:08.121Z,0.60
2017-12-14T04:32:34.874Z,0.50
2017-12-14T04:35:01.479Z,0.40
2017-12-14T04:37:28.099Z,0.40
2017-12-14T04:39:54.851Z,0.40
2017-12-14T04:42:21.449Z,0.60
2017-12-14T04:44:48.463Z,0.47
2017-12-14T04:47:15.129Z,0.55
2017-12-14T04:49:41.934Z,0.50
2017-12-14T04:52:08.610Z,0.50
2017-12-14T04:54:35.771Z,0.50
2017-12-14T04:57:02.361Z,0.68
2017-12-14T04:59:29.336Z,0.50
2017-12-14T05:01:55.982Z,0.50
2017-12-14T05:04:22.645Z,0.40
2017-12-14T05:06:49.324Z,0.50
2017-12-14T05:09:15.939Z,0.60
2017-12-14T05:11:42.523Z,0.50
2017-12-14T05:14:09.133Z,0.52
2017-12-14T05:16:35.798Z,0.55
2017-12-14T05:19:02.409Z,0.60
2017-12-14T05:21:29.368Z,0.73
2017-12-14T05:23:56.483Z,0.50
2017-12-14T05:26:23.089Z,1.10
2017-12-14T05:28:49.782Z,0.40
2017-12-14T05:31:16.441Z,0.60
2017-12-14T05:33:43.058Z,0.50
2017-12-14T05:36:09.666Z,1.30
2017-12-14T05:38:36.758Z,0.60
2017-12-14T05:41:03.441Z,0.50
2017-12-14T05:43:30.050Z,0.60
2017-12-14T05:45:56.814Z,0.43
2017-12-14T05:48:23.466Z,0.40
2017-12-14T05:50:50.139Z,0.40
2017-12-14T05:53:16.831Z,0.40
2017-12-14T05:55:43.826Z,0.70
2017-12-14T05:58:10.470Z,0.50
2017-12-14T06:00:37.250Z,0.50
2017-12-14T06:03:03.875Z,0.50
2017-12-14T06:05:30.518Z,0.40
2017-12-14T06:07:57.270Z,0.50
2017-12-14T06:10:23.923Z,0.50
2017-12-14T06:12:50.504Z,0.45
2017-12-14T06:15:17.149Z,0.50
2017-12-14T06:17:43.757Z,0.50
2017-12-14T06:20:10.370Z,0.40
2017-12-14T06:22:37.030Z,0.50
2017-12-14T06:25:04.017Z,0.30
2017-12-14T06:27:30.624Z,0.40
2017-12-14T06:29:57.337Z,0.70
2017-12-14T06:32:23.956Z,0.43
2017-12-14T06:34:50.564Z,0.50
2017-12-14T06:37:17.218Z,0.40
2017-12-14T06:39:43.826Z,0.40
2017-12-14T06:42:10.540Z,0.70
2017-12-14T06:44:37.323Z,0.93
2017-12-14T06:47:03.926Z,0.40
2017-12-14T06:49:30.537Z,1.00
2017-12-14T06:51:57.209Z,0.60
2017-12-14T06:54:23.802Z,0.80
2017-12-14T06:56:50.437Z,0.60
2017-12-14T06:59:17.546Z,0.95
2017-12-14T07:01:44.153Z,1.70
2017-12-14T07:04:11.133Z,0.57
2017-12-14T07:06:37.841Z,1.23
2017-12-14T07:09:04.821Z,0.85
2017-12-14T07:11:31.422Z,0.50
2017-12-14T07:13:58.086Z,0.73
2017-12-14T07:16:24.698Z,0.70
2017-12-14T07:18:52.370Z,0.70
2017-12-14T07:21:19.135Z,0.50
2017-12-14T07:23:45.761Z,0.60
2017-12-14T07:26:12.337Z,0.90
2017-12-14T07:28:39.023Z,0.80
2017-12-14T07:31:06.010Z,0.43
2017-12-14T07:33:32.609Z,0.60
2017-12-14T07:35:59.369Z,0.85
2017-12-14T07:38:26.355Z,0.50
2017-12-14T07:40:52.973Z,0.55
2017-12-14T07:43:19.639Z,0.57
2017-12-14T07:46:07.401Z,0.62
2017-12-14T07:48:34.053Z,0.47
2017-12-14T07:51:00.681Z,0.80
2017-12-14T07:53:27.658Z,0.65
2017-12-14T07:55:54.333Z,0.60
2017-12-14T07:58:20.942Z,0.60
2017-12-14T08:00:47.600Z,0.52
2017-12-14T08:03:14.347Z,0.60
2017-12-14T08:05:41.355Z,0.80
2017-12-14T08:08:07.962Z,0.50
2017-12-14T08:10:34.621Z,0.55
2017-12-14T08:13:01.225Z,0.70
2017-12-14T08:15:27.820Z,0.50
2017-12-14T08:17:54.473Z,0.60
2017-12-14T08:20:21.087Z,0.60
2017-12-14T08:22:48.066Z,0.70
2017-12-14T08:25:14.720Z,0.55
2017-12-14T08:27:41.323Z,0.50
2017-12-14T08:30:07.937Z,0.60
2017-12-14T08:32:34.622Z,0.55
2017-12-14T08:35:01.262Z,0.40
2017-12-14T08:37:27.887Z,0.40
2017-12-14T08:39:54.574Z,0.60
2017-12-14T08:42:21.412Z,0.50
2017-12-14T08:44:48.344Z,0.43
2017-12-14T08:47:15.358Z,0.70
2017-12-14T08:49:42.608Z,0.60
2017-12-14T08:52:09.557Z,0.55
2017-12-14T08:54:36.518Z,0.50
2017-12-14T08:57:03.457Z,0.52
2017-12-14T08:59:30.375Z,0.60
2017-12-14T09:01:57.330Z,0.50
2017-12-14T09:04:24.273Z,0.40
2017-12-14T09:06:51.228Z,0.82
2017-12-14T09:09:18.280Z,0.60
2017-12-14T09:11:45.520Z,0.60
2017-12-14T09:14:12.409Z,0.60
2017-12-14T09:16:39.384Z,0.40
2017-12-14T09:19:06.270Z,0.90
2017-12-14T09:21:33.108Z,0.65
2017-12-14T09:24:00.052Z,0.65
2017-12-14T09:26:26.962Z,0.50
2017-12-14T09:28:54.222Z,0.50
2017-12-14T09:31:21.184Z,0.77
2017-12-14T09:33:48.377Z,0.57
2017-12-14T09:36:15.299Z,0.88
2017-12-14T09:38:42.644Z,0.70
2017-12-14T09:41:09.543Z,0.60
2017-12-14T09:43:36.443Z,0.50
2017-12-14T09:46:03.404Z,0.47
2017-12-14T09:48:30.302Z,0.60
2017-12-14T09:50:57.270Z,0.60
2017-12-14T09:53:24.273Z,0.50
2017-12-14T09:55:51.087Z,0.60
2017-12-14T09:58:17.975Z,0.50
2017-12-14T10:00:45.108Z,0.68
2017-12-14T10:03:12.010Z,1.10
2017-12-14T10:05:39.867Z,0.60
2017-12-14T10:08:06.930Z,0.68
2017-12-14T10:10:33.844Z,0.60
2017-12-14T10:13:00.723Z,0.40
2017-12-14T10:15:27.693Z,0.43
2017-12-14T10:17:54.586Z,0.50
2017-12-14T10:20:21.477Z,0.52
2017-12-14T10:22:48.477Z,0.60
2017-12-14T10:25:15.386Z,0.55
2017-12-14T10:27:42.234Z,0.45
2017-12-14T10:30:09.243Z,0.62
2017-12-14T10:32:36.143Z,0.40
2017-12-14T10:35:03.407Z,0.40
2017-12-14T10:37:30.770Z,0.73
2017-12-14T10:39:58.025Z,0.60
2017-12-14T10:42:25.304Z,0.60
2017-12-14T10:44:52.255Z,0.90
2017-12-14T10:47:19.129Z,0.90
2017-12-14T10:49:46.046Z,0.90
2017-12-14T10:52:13.010Z,0.50
2017-12-14T10:54:40.207Z,0.50
2017-12-14T10:57:07.117Z,0.50
2017-12-14T10:59:34.148Z,0.60
2017-12-14T11:02:01.065Z,0.50
2017-12-14T11:04:27.977Z,0.50
2017-12-14T11:06:54.999Z,0.60
2017-12-14T11:09:21.999Z,1.52
2017-12-14T11:11:48.976Z,0.70
2017-12-14T11:14:16.323Z,0.60
2017-12-14T11:16:43.211Z,1.00
2017-12-14T11:19:10.059Z,0.62
2017-12-14T11:21:37.063Z,0.60
2017-12-14T11:24:04.014Z,2.28
2017-12-14T11:26:30.899Z,0.50
2017-12-14T11:28:57.860Z,0.70
2017-12-14T11:31:24.736Z,0.60
2017-12-14T11:33:51.986Z,0.70
2017-12-14T11:36:19.024Z,0.65
2017-12-14T11:38:45.903Z,0.40
2017-12-14T11:41:13.199Z,0.60
2017-12-14T11:43:40.130Z,0.62
2017-12-14T11:46:07.347Z,0.70
2017-12-14T11:48:34.238Z,0.50
2017-12-14T11:51:01.159Z,0.55
2017-12-14T11:53:28.079Z,0.70
2017-12-14T11:55:54.938Z,0.70
2017-12-14T11:58:21.888Z,0.60
2017-12-14T12:00:48.825Z,0.68
2017-12-14T12:03:16.132Z,0.90
2017-12-14T12:05:43.080Z,0.65
2017-12-14T12:08:10.051Z,0.60
2017-12-14T12:10:36.966Z,0.70
2017-12-14T12:13:04.602Z,0.80
2017-12-14T12:15:32.072Z,0.50
2017-12-14T12:18:00.288Z,0.80
2017-12-14T12:20:27.690Z,1.48
2017-12-14T12:22:54.556Z,0.70
2017-12-14T12:25:21.416Z,0.52
2017-12-14T12:27:48.387Z,0.70
2017-12-14T12:30:15.279Z,0.60
2017-12-14T12:32:42.516Z,0.80
2017-12-14T12:35:09.494Z,0.90
2017-12-14T12:37:36.763Z,0.47
2017-12-14T12:40:04.584Z,0.70
2017-12-14T12:42:31.494Z,1.08
2017-12-14T12:44:58.798Z,0.70
2017-12-14T12:47:25.690Z,0.50
2017-12-14T12:49:52.677Z,0.88
2017-12-14T12:52:19.573Z,0.60
2017-12-14T12:54:46.486Z,1.45
2017-12-14T12:57:13.832Z,0.75
2017-12-14T12:59:41.161Z,0.75
2017-12-14T13:02:08.243Z,0.62
2017-12-14T13:04:35.141Z,1.00
2017-12-14T13:07:01.994Z,1.30
2017-12-14T13:09:35.911Z,0.90
2017-12-14T13:12:02.791Z,0.90
2017-12-14T13:14:29.640Z,1.42
2017-12-14T13:16:56.630Z,0.68
2017-12-14T13:19:23.554Z,0.90
2017-12-14T13:21:50.435Z,0.82
2017-12-14T13:24:17.444Z,1.12
2017-12-14T13:26:44.732Z,0.90
2017-12-14T13:29:11.597Z,1.45
2017-12-14T13:31:38.540Z,1.00
2017-12-14T13:34:05.450Z,1.45
2017-12-14T13:36:32.338Z,1.65
2017-12-14T13:38:59.386Z,1.23
2017-12-14T13:41:26.650Z,0.98
2017-12-14T13:43:53.586Z,0.80
2017-12-14T13:46:20.621Z,1.50
2017-12-14T13:48:47.548Z,0.90
2017-12-14T13:51:14.373Z,1.00
2017-12-14T13:53:42.370Z,1.48
2017-12-14T13:56:09.384Z,1.00
2017-12-14T13:58:36.254Z,1.00
2017-12-14T14:01:03.233Z,1.20
2017-12-14T14:03:30.100Z,1.00
2017-12-14T14:05:56.869Z,1.00
2017-12-14T14:08:23.823Z,1.40
2017-12-14T14:10:50.675Z,1.25
2017-12-14T14:13:17.482Z,1.20
2017-12-14T14:15:44.925Z,1.15
2017-12-14T14:18:11.787Z,1.48
2017-12-14T14:20:38.603Z,1.40
2017-12-14T14:23:05.542Z,1.20
2017-12-14T14:25:32.379Z,1.45
2017-12-14T14:27:59.199Z,1.35
2017-12-14T14:30:26.164Z,1.58
2017-12-14T14:32:53.007Z,1.10
2017-12-14T14:35:19.839Z,2.05
2017-12-14T14:37:46.825Z,1.20
2017-12-14T14:40:13.651Z,3.40
2017-12-14T14:42:40.543Z,1.30
2017-12-14T14:45:07.613Z,0.95
2017-12-14T14:47:34.835Z,1.17
2017-12-14T14:50:01.651Z,1.20
2017-12-14T14:52:28.547Z,1.55
2017-12-14T14:54:55.352Z,1.50
2017-12-14T14:57:22.190Z,1.20
2017-12-14T14:59:49.474Z,2.15
2017-12-14T15:02:16.269Z,1.15
2017-12-14T15:04:43.032Z,1.05
2017-12-14T15:07:10.051Z,1.62
2017-12-14T15:09:36.881Z,1.52
2017-12-14T15:12:04.119Z,1.35
2017-12-14T15:14:32.833Z,1.25
2017-12-14T15:16:59.982Z,1.17
2017-12-14T15:19:26.818Z,1.08
2017-12-14T15:21:53.687Z,1.00
2017-12-14T15:24:20.504Z,1.67
2017-12-14T15:26:47.591Z,1.05
2017-12-14T15:29:14.465Z,1.23
2017-12-14T15:31:41.365Z,1.40
2017-12-14T15:34:08.182Z,1.48
2017-12-14T15:36:35.418Z,0.90
2017-12-14T15:39:02.359Z,1.10
2017-12-14T15:41:29.273Z,1.12
2017-12-14T15:43:56.144Z,1.30
2017-12-14T15:46:23.040Z,7.20
2017-12-14T15:48:49.852Z,3.78
2017-12-14T15:51:18.868Z,9.02
2017-12-14T15:53:45.698Z,3.42
2017-12-14T15:56:12.502Z,5.10
2017-12-14T15:58:39.387Z,2.90
2017-12-14T16:01:06.554Z,2.30
2017-12-14T16:03:33.737Z,2.62
2017-12-14T16:06:00.613Z,2.62
2017-12-14T16:08:27.423Z,2.40
2017-12-14T16:10:54.217Z,6.40
2017-12-14T16:13:21.179Z,3.28
2017-12-14T16:15:47.952Z,3.25
2017-12-14T16:18:14.612Z,1.87
2017-12-14T16:20:41.476Z,1.92
2017-12-14T16:23:08.653Z,1.95
2017-12-14T16:25:35.781Z,2.08
2017-12-14T16:28:02.669Z,1.60
2017-12-14T16:30:29.290Z,1.20
2017-12-14T16:32:55.928Z,1.40
2017-12-14T16:35:22.817Z,1.00
2017-12-14T16:37:50.001Z,3.92
2017-12-14T16:40:16.801Z,1.25
2017-12-14T16:42:43.667Z,2.35
2017-12-14T16:45:10.618Z,1.60
2017-12-14T16:47:37.406Z,1.52
2017-12-14T16:50:04.378Z,1.05
2017-12-14T16:52:31.162Z,1.10
2017-12-14T16:54:57.697Z,1.23
2017-12-14T16:57:24.297Z,1.58
2017-12-14T16:59:51.226Z,1.62
2017-12-14T17:02:18.618Z,1.42
2017-12-14T17:04:45.582Z,0.93
2017-12-14T17:07:12.122Z,1.67
2017-12-14T17:09:39.036Z,1.48
2017-12-14T17:12:05.646Z,3.35
2017-12-14T17:14:32.278Z,2.95
2017-12-14T17:16:59.181Z,6.47
2017-12-14T17:19:25.817Z,6.78
2017-12-14T17:21:52.417Z,2.28
2017-12-14T17:24:18.949Z,2.65
2017-12-14T17:26:45.538Z,2.90
2017-12-14T17:29:12.078Z,4.00
2017-12-14T17:31:38.990Z,3.28
2017-12-14T17:34:05.624Z,2.50
2017-12-14T17:36:32.165Z,2.20
2017-12-14T17:38:58.724Z,2.03
2017-12-14T17:41:25.366Z,1.60
2017-12-14T17:43:51.909Z,1.30
2017-12-14T17:46:18.476Z,1.73
2017-12-14T17:48:45.178Z,1.85
2017-12-14T17:51:11.745Z,2.00
2017-12-14T17:53:38.298Z,2.15
2017-12-14T17:56:04.877Z,2.70
2017-12-14T17:58:31.417Z,1.70
2017-12-14T18:00:58.030Z,1.87
2017-12-14T18:03:24.617Z,2.00
2017-12-14T18:05:51.165Z,2.55
2017-12-14T18:08:17.730Z,2.08
2017-12-14T18:10:44.406Z,2.72
2017-12-14T18:13:10.953Z,1.37
2017-12-14T18:15:37.559Z,0.90
2017-12-14T18:18:04.181Z,0.80
2017-12-14T18:20:30.729Z,0.80
2017-12-14T18:22:57.299Z,0.80
2017-12-14T18:25:23.906Z,0.70
2017-12-14T18:27:50.714Z,0.88
2017-12-14T18:30:17.307Z,0.70
2017-12-14T18:32:43.914Z,1.05
2017-12-14T18:35:10.482Z,1.30
2017-12-14T18:37:37.457Z,0.80
2017-12-14T18:40:04.090Z,0.95
2017-12-14T18:42:30.706Z,0.90
2017-12-14T18:44:57.253Z,0.85
2017-12-14T18:47:23.917Z,1.10
2017-12-14T18:49:50.845Z,0.77
2017-12-14T18:52:17.410Z,1.40
2017-12-14T18:54:44.009Z,2.05
2017-12-14T18:57:10.602Z,1.95
2017-12-14T18:59:37.232Z,1.37
2017-12-14T19:02:03.885Z,1.65
2017-12-14T19:04:30.521Z,1.70
2017-12-14T19:06:57.180Z,1.15
2017-12-14T19:09:23.790Z,1.37
2017-12-14T19:11:50.382Z,1.30
2017-12-14T19:14:17.626Z,1.60
2017-12-14T19:16:44.402Z,1.10
2017-12-14T19:19:11.030Z,1.10
2017-12-14T19:21:37.653Z,1.17
2017-12-14T19:24:05.186Z,1.10
2017-12-14T19:26:31.742Z,0.82
2017-12-14T19:28:58.705Z,1.25
2017-12-14T19:31:25.661Z,0.80
2017-12-14T19:33:52.590Z,0.90
2017-12-14T19:36:19.145Z,0.60
2017-12-14T19:38:45.821Z,0.50
2017-12-14T19:41:12.815Z,0.50
2017-12-14T19:43:39.429Z,0.68
2017-12-14T19:46:06.422Z,0.75
2017-12-14T19:48:32.990Z,1.02
2017-12-14T19:50:59.575Z,0.62
2017-12-14T19:53:27.539Z,0.52
2017-12-14T19:55:54.130Z,0.47
2017-12-14T19:58:20.750Z,0.82
2017-12-14T20:00:50.902Z,0.70
2017-12-14T20:03:17.497Z,0.70
2017-12-14T20:05:44.100Z,0.70
2017-12-14T20:08:13.066Z,0.50
2017-12-14T20:10:39.650Z,0.50
2017-12-14T20:13:06.198Z,1.15
2017-12-14T20:15:32.877Z,0.70
2017-12-14T20:17:59.475Z,0.57
2017-12-14T20:20:26.453Z,0.60
2017-12-14T20:22:53.057Z,0.55
2017-12-14T20:25:19.727Z,0.50
2017-12-14T20:27:47.562Z,1.02
2017-12-14T20:30:14.324Z,0.50
2017-12-14T20:32:42.137Z,0.60
2017-12-14T20:35:09.346Z,0.50
2017-12-14T20:37:36.015Z,0.60
2017-12-14T20:40:02.634Z,0.50
2017-12-14T20:42:29.218Z,0.90
2017-12-14T20:44:55.903Z,0.62
2017-12-14T20:47:23.711Z,0.90
2017-12-14T20:49:51.134Z,0.70
2017-12-14T20:52:18.138Z,0.50
2017-12-14T20:54:45.810Z,0.70
2017-12-14T20:57:12.390Z,0.50
2017-12-14T20:59:39.033Z,0.50
2017-12-14T21:02:05.640Z,0.70
2017-12-14T21:04:32.517Z,0.62
2017-12-14T21:07:00.206Z,0.60
2017-12-14T21:09:27.605Z,0.80
2017-12-14T21:11:54.241Z,0.90
2017-12-14T21:14:21.018Z,0.98
2017-12-14T21:16:48.011Z,1.20
2017-12-14T21:19:14.622Z,0.77
2017-12-14T21:21:41.642Z,0.70
2017-12-14T21:24:08.253Z,0.50
2017-12-14T21:26:34.808Z,1.02
2017-12-14T21:29:01.478Z,0.85
2017-12-14T21:31:28.082Z,0.57
2017-12-14T21:33:54.638Z,1.12
2017-12-14T21:36:21.337Z,0.77
2017-12-14T21:38:48.317Z,0.90
2017-12-14T21:41:15.274Z,0.60
2017-12-14T21:43:42.330Z,0.90
2017-12-14T21:46:09.855Z,1.12
2017-12-14T21:48:36.457Z,1.02
2017-12-14T21:51:03.514Z,0.85
2017-12-14T21:53:30.465Z,1.42
2017-12-14T21:55:57.446Z,0.75
2017-12-14T21:58:24.118Z,0.75
2017-12-14T22:00:50.725Z,0.85
2017-12-14T22:03:17.694Z,0.90
2017-12-14T22:05:44.351Z,0.60
2017-12-14T22:08:10.930Z,1.08
2017-12-14T22:10:37.505Z,0.70
2017-12-14T22:13:04.149Z,0.70
2017-12-14T22:15:30.955Z,0.40
2017-12-14T22:17:57.842Z,0.50
2017-12-14T22:23:32.657Z,0.60
2017-12-14T22:26:00.049Z,0.85
2017-12-14T22:28:26.866Z,0.65
2017-12-14T22:30:53.924Z,1.10
2017-12-14T22:33:20.758Z,1.15
2017-12-14T22:35:47.585Z,0.70
2017-12-14T22:38:14.635Z,0.70
2017-12-14T22:40:41.646Z,0.50
2017-12-14T22:43:08.606Z,0.50
2017-12-14T22:45:35.664Z,0.80
2017-12-14T22:48:02.614Z,0.50
2017-12-14T22:50:29.483Z,0.60
2017-12-14T22:52:56.744Z,0.60
2017-12-14T22:55:23.548Z,0.70
2017-12-14T22:57:50.398Z,0.40
2017-12-14T23:00:17.501Z,0.43
2017-12-14T23:02:44.454Z,0.40
2017-12-14T23:05:11.417Z,0.45
2017-12-14T23:07:38.386Z,0.57
2017-12-14T23:10:05.334Z,0.50
2017-12-14T23:12:32.146Z,0.82
2017-12-14T23:14:59.065Z,0.40
2017-12-14T23:17:26.394Z,0.30
2017-12-14T23:19:53.233Z,0.60
2017-12-14T23:22:20.148Z,0.40
2017-12-14T23:24:46.994Z,0.50
2017-12-14T23:27:14.154Z,0.50
2017-12-14T23:29:41.378Z,0.50
2017-12-14T23:32:08.183Z,0.60
2017-12-14T23:34:35.206Z,0.60
2017-12-14T23:37:02.125Z,0.40
2017-12-14T23:39:28.936Z,0.47
2017-12-14T23:41:56.142Z,0.60
2017-12-14T23:44:23.016Z,0.62
2017-12-14T23:46:49.806Z,0.60
2017-12-14T23:49:16.977Z,0.50
2017-12-14T23:51:43.912Z,0.52
2017-12-14T23:54:10.915Z,0.70
2017-12-14T23:56:37.470Z,0.60
2017-12-14T23:59:04.110Z,0.65
